createdAt,value
2023-03-17T00:01:25.070Z,94718.91
2023-03-17T00:03:53.286Z,94695.88
2023-03-17T00:06:28.551Z,94664.78
2023-03-17T00:08:57.626Z,94643.72
2023-03-17T00:11:26.161Z,94630.13
2023-03-17T00:16:50.679Z,94626.88
2023-03-17T00:19:22.318Z,94643.88
2023-03-17T00:21:51.726Z,94644.69
2023-03-17T00:24:19.676Z,94625.25
2023-03-17T00:26:48.257Z,94621.84
2023-03-17T00:29:16.391Z,94608.41
2023-03-17T00:31:45.692Z,94590.91
2023-03-17T00:34:18.386Z,94595.78
2023-03-17T00:36:48.034Z,94595.09
2023-03-17T00:39:17.263Z,94594.13
2023-03-17T00:44:13.295Z,94583.28
2023-03-17T00:46:42.148Z,94580.84
2023-03-17T00:49:20.897Z,94577.47
2023-03-17T00:51:49.687Z,94594.47
2023-03-17T00:54:19.431Z,94591.72
2023-03-17T00:56:48.395Z,94653.13
2023-03-17T00:59:22.681Z,94632.72
2023-03-17T01:01:51.244Z,94667.38
2023-03-17T01:04:20.711Z,94661.22
2023-03-17T01:06:49.503Z,94660.41
2023-03-17T01:09:19.438Z,94684.88
2023-03-17T01:11:48.780Z,94680.81
2023-03-17T01:14:17.818Z,94690.06
2023-03-17T01:16:47.687Z,94719.25
2023-03-17T01:19:17.012Z,94716.66
2023-03-17T01:21:48.120Z,94737.91
2023-03-17T01:24:15.982Z,94750.38
2023-03-17T01:26:43.915Z,94755.25
2023-03-17T01:29:12.369Z,94753.78
2023-03-17T01:31:40.274Z,94762.84
2023-03-17T01:34:08.283Z,94760.25
2023-03-17T01:36:36.143Z,94770.63
2023-03-17T01:39:07.352Z,94758.81
2023-03-17T01:41:35.572Z,94768.53
2023-03-17T01:44:03.398Z,94756.53
2023-03-17T01:46:34.007Z,94750.38
2023-03-17T01:49:11.265Z,94745.19
2023-03-17T01:51:47.707Z,94784.56
2023-03-17T01:54:19.662Z,94837.63
2023-03-17T01:56:52.514Z,94822.56
2023-03-17T01:59:24.973Z,94790.56
2023-03-17T02:01:57.736Z,94770.47
2023-03-17T02:04:26.974Z,94746.81
2023-03-17T02:06:58.261Z,94729.31
2023-03-17T02:09:28.583Z,94717.63
2023-03-17T02:11:57.652Z,94704.31
2023-03-17T02:14:25.685Z,94709.03
2023-03-17T02:16:53.765Z,94722.00
2023-03-17T02:19:21.586Z,94718.28
2023-03-17T02:21:52.514Z,94720.22
2023-03-17T02:24:27.489Z,94720.22
2023-03-17T02:26:58.386Z,94721.03
2023-03-17T02:29:26.159Z,94724.28
2023-03-17T02:31:54.706Z,94722.66
2023-03-17T02:34:22.549Z,94740.31
2023-03-17T02:36:51.734Z,94738.38
2023-03-17T02:39:19.795Z,94752.00
2023-03-17T02:41:47.680Z,94752.00
2023-03-17T02:44:16.202Z,94744.38
2023-03-17T02:46:44.148Z,94766.91
2023-03-17T02:49:12.921Z,94838.28
2023-03-17T02:51:40.875Z,94864.22
2023-03-17T02:54:10.174Z,94857.09
2023-03-17T02:56:38.389Z,94890.84
2023-03-17T02:59:07.222Z,94890.66
2023-03-17T03:01:35.370Z,94953.81
2023-03-17T03:04:03.985Z,94951.22
2023-03-17T03:06:32.750Z,95023.66
2023-03-17T03:09:00.857Z,95023.50
2023-03-17T03:11:30.039Z,95051.25
2023-03-17T03:13:58.045Z,95099.34
2023-03-17T03:16:26.369Z,95120.47
2023-03-17T03:18:54.244Z,95104.69
2023-03-17T03:21:22.293Z,95133.31
2023-03-17T03:23:50.104Z,95202.72
2023-03-17T03:26:18.006Z,95293.00
2023-03-17T03:28:47.399Z,95314.94
2023-03-17T03:31:15.345Z,95301.28
2023-03-17T03:33:43.606Z,95329.31
2023-03-17T03:36:12.044Z,95380.88
2023-03-17T03:38:40.253Z,95391.78
2023-03-17T03:41:08.431Z,95363.44
2023-03-17T03:43:36.421Z,95359.88
2023-03-17T03:46:06.213Z,95396.66
2023-03-17T03:48:34.270Z,95375.47
2023-03-17T03:51:04.196Z,95393.72
2023-03-17T03:53:32.213Z,95423.84
2023-03-17T03:56:00.107Z,95389.19
2023-03-17T03:58:28.082Z,95392.59
2023-03-17T04:00:55.909Z,95440.94
2023-03-17T04:03:25.222Z,95475.47
2023-03-17T04:05:53.015Z,95487.19
2023-03-17T04:08:21.081Z,95529.38
2023-03-17T04:10:48.818Z,95512.88
2023-03-17T04:13:16.613Z,95556.59
2023-03-17T04:15:44.494Z,95551.41
2023-03-17T04:18:14.274Z,95546.47
2023-03-17T04:20:43.491Z,95562.47
2023-03-17T04:23:11.482Z,95536.88
2023-03-17T04:25:39.312Z,95529.38
2023-03-17T04:28:09.015Z,95567.69
2023-03-17T04:30:36.868Z,95589.53
2023-03-17T04:33:04.906Z,95598.00
2023-03-17T04:35:32.725Z,95598.00
2023-03-17T04:38:01.959Z,95609.06
2023-03-17T04:40:30.060Z,95594.06
2023-03-17T04:42:58.076Z,95591.16
2023-03-17T04:45:26.001Z,95624.38
2023-03-17T04:47:53.792Z,95594.03
2023-03-17T04:50:21.686Z,95631.38
2023-03-17T04:52:49.476Z,95657.31
2023-03-17T04:55:19.001Z,95677.56
2023-03-17T04:57:47.527Z,95664.03
2023-03-17T05:00:16.545Z,95670.72
2023-03-17T05:02:44.501Z,95703.00
2023-03-17T05:05:12.262Z,95758.59
2023-03-17T05:07:40.164Z,95762.19
2023-03-17T05:10:09.473Z,95764.47
2023-03-17T05:12:38.698Z,95816.38
2023-03-17T05:15:10.028Z,95844.44
2023-03-17T05:17:39.109Z,95846.38
2023-03-17T05:20:08.563Z,95897.84
2023-03-17T05:22:36.795Z,95907.66
2023-03-17T05:25:05.850Z,95941.31
2023-03-17T05:27:34.113Z,95968.72
2023-03-17T05:30:03.769Z,95960.75
2023-03-17T05:32:32.138Z,96001.59
2023-03-17T05:35:00.210Z,96019.69
2023-03-17T05:37:28.764Z,96032.06
2023-03-17T05:39:56.737Z,96077.22
2023-03-17T05:42:24.631Z,96093.25
2023-03-17T05:44:52.486Z,96121.06
2023-03-17T05:47:22.832Z,96142.47
2023-03-17T05:49:50.845Z,96143.28
2023-03-17T05:52:18.559Z,96202.66
2023-03-17T05:54:48.961Z,96223.13
2023-03-17T05:57:17.177Z,96248.34
2023-03-17T05:59:45.055Z,96278.25
2023-03-17T06:02:13.665Z,96303.63
2023-03-17T06:04:43.190Z,96324.94
2023-03-17T06:07:12.092Z,96342.63
2023-03-17T06:09:40.188Z,96363.59
2023-03-17T06:12:09.411Z,96398.63
2023-03-17T06:14:37.473Z,96452.34
2023-03-17T06:17:05.549Z,96439.75
2023-03-17T06:19:33.288Z,96491.34
2023-03-17T06:22:02.739Z,96495.59
2023-03-17T06:24:30.597Z,96499.88
2023-03-17T06:26:58.344Z,96517.56
2023-03-17T06:29:26.512Z,96525.28
2023-03-17T06:31:54.410Z,96550.72
2023-03-17T06:34:24.146Z,96577.53
2023-03-17T06:36:52.253Z,96616.41
2023-03-17T06:39:21.430Z,96644.47
2023-03-17T06:41:49.332Z,96663.03
2023-03-17T06:44:17.685Z,96696.34
2023-03-17T06:46:45.509Z,96728.81
2023-03-17T06:49:13.514Z,96687.13
2023-03-17T06:51:41.470Z,96735.81
2023-03-17T06:54:09.680Z,96772.16
2023-03-17T06:56:39.065Z,96774.09
2023-03-17T06:59:06.885Z,96782.63
2023-03-17T07:01:34.793Z,96785.78
2023-03-17T07:04:02.605Z,96876.25
2023-03-17T07:06:31.041Z,96888.09
2023-03-17T07:09:00.981Z,96904.34
2023-03-17T07:11:30.787Z,96920.88
2023-03-17T07:14:00.301Z,96955.44
2023-03-17T07:16:28.922Z,96958.03
2023-03-17T07:18:56.760Z,96946.06
2023-03-17T07:21:24.646Z,96942.63
2023-03-17T07:23:52.404Z,96939.31
2023-03-17T07:26:20.245Z,96968.25
2023-03-17T07:28:48.239Z,97002.16
2023-03-17T07:31:17.611Z,97032.34
2023-03-17T07:33:45.571Z,97043.38
2023-03-17T07:36:13.547Z,97067.22
2023-03-17T07:38:41.744Z,97096.19
2023-03-17T07:41:10.171Z,97128.44
2023-03-17T07:43:39.009Z,97172.03
2023-03-17T07:46:07.482Z,97161.97
2023-03-17T07:48:40.988Z,97174.50
2023-03-17T07:51:14.107Z,97232.75
2023-03-17T07:53:42.009Z,97227.78
2023-03-17T07:56:10.531Z,97299.25
2023-03-17T07:58:38.466Z,97320.84
2023-03-17T08:01:06.862Z,97413.91
2023-03-17T08:03:38.149Z,97418.88
2023-03-17T08:06:08.837Z,97429.38
2023-03-17T08:08:36.970Z,97519.75
2023-03-17T08:11:06.465Z,97609.66
2023-03-17T08:13:34.854Z,97668.75
2023-03-17T08:16:02.708Z,97632.06
2023-03-17T08:18:31.026Z,97750.94
2023-03-17T08:21:00.225Z,97910.63
2023-03-17T08:23:28.130Z,98011.56
2023-03-17T08:25:58.240Z,98222.72
2023-03-17T08:28:28.099Z,98211.84
2023-03-17T08:30:57.787Z,98273.19
2023-03-17T08:33:25.759Z,98147.19
2023-03-17T08:35:53.656Z,98052.84
2023-03-17T08:38:22.774Z,98176.59
2023-03-17T08:40:50.946Z,98272.69
2023-03-17T08:43:18.850Z,98302.09
2023-03-17T08:45:46.779Z,98179.22
2023-03-17T08:48:15.291Z,98076.97
2023-03-17T08:50:43.313Z,98093.34
2023-03-17T08:53:11.918Z,98001.56
2023-03-17T08:55:41.240Z,97936.53
2023-03-17T08:58:09.442Z,97933.06
2023-03-17T09:00:37.214Z,97852.44
2023-03-17T09:03:05.764Z,97859.06
2023-03-17T09:05:36.914Z,97794.13
2023-03-17T09:08:06.248Z,97688.78
2023-03-17T09:10:34.371Z,97657.22
2023-03-17T09:13:04.665Z,97656.97
2023-03-17T09:15:34.193Z,97632.31
2023-03-17T09:18:03.325Z,97650.31
2023-03-17T09:20:31.540Z,97558.91
2023-03-17T09:22:59.734Z,97534.81
2023-03-17T09:25:27.811Z,97540.22
2023-03-17T09:27:56.530Z,97560.56
2023-03-17T09:30:26.969Z,97519.34
2023-03-17T09:32:54.957Z,97528.06
2023-03-17T09:35:22.825Z,97574.25
2023-03-17T09:37:51.591Z,97590.28
2023-03-17T09:40:26.319Z,97655.00
2023-03-17T09:43:08.089Z,97710.25
2023-03-17T09:45:42.917Z,97842.19
2023-03-17T09:48:29.719Z,98075.31
2023-03-17T09:51:01.545Z,98296.81
2023-03-17T09:53:34.275Z,98678.94
2023-03-17T09:56:07.173Z,99243.06
2023-03-17T09:58:36.519Z,99559.19
2023-03-17T10:01:06.323Z,99585.00
2023-03-17T10:03:34.690Z,99213.97
2023-03-17T10:06:34.598Z,99195.81
2023-03-17T10:09:11.465Z,99155.34
2023-03-17T10:11:43.033Z,99219.25
2023-03-17T10:14:39.668Z,99322.91
2023-03-17T10:17:17.748Z,99604.28
2023-03-17T10:19:49.635Z,99567.88
2023-03-17T10:22:23.838Z,99582.69
2023-03-17T10:24:53.712Z,99418.94
2023-03-17T10:27:22.480Z,99180.56
2023-03-17T10:29:50.899Z,98995.72
2023-03-17T10:32:20.091Z,99133.84
2023-03-17T10:34:49.382Z,99088.31
2023-03-17T10:37:19.903Z,99195.22
2023-03-17T10:39:49.572Z,99085.78
2023-03-17T10:42:23.758Z,98992.59
2023-03-17T10:44:55.563Z,98826.06
2023-03-17T10:47:32.687Z,98849.91
2023-03-17T10:50:05.669Z,98834.31
2023-03-17T10:52:39.646Z,98681.94
2023-03-17T10:55:09.113Z,98614.84
2023-03-17T10:57:38.915Z,98647.00
2023-03-17T11:00:15.716Z,98602.75
2023-03-17T11:02:49.335Z,98562.25
2023-03-17T11:05:23.590Z,98435.03
2023-03-17T11:07:57.627Z,98340.41
2023-03-17T11:10:27.946Z,98293.69
2023-03-17T11:13:00.508Z,98244.06
2023-03-17T11:15:33.807Z,98123.25
2023-03-17T11:18:04.815Z,98089.00
2023-03-17T11:20:47.726Z,98099.28
2023-03-17T11:23:39.645Z,98052.81
2023-03-17T11:26:22.874Z,98031.34
2023-03-17T11:28:58.596Z,98007.84
2023-03-17T11:31:31.106Z,98055.31
2023-03-17T11:34:07.007Z,98064.75
2023-03-17T11:36:48.462Z,98091.38
2023-03-17T11:39:21.967Z,98104.13
2023-03-17T11:42:01.952Z,98093.31
2023-03-17T11:45:02.577Z,98088.88
2023-03-17T11:47:39.662Z,98172.97
2023-03-17T11:50:24.311Z,98173.09
2023-03-17T11:53:03.652Z,98140.34
2023-03-17T11:55:42.784Z,98110.22
2023-03-17T11:58:18.723Z,98108.44
2023-03-17T12:00:52.570Z,98085.41
2023-03-17T12:03:27.573Z,98093.03
2023-03-17T12:06:01.590Z,98063.22
2023-03-17T12:08:38.784Z,98037.44
2023-03-17T12:11:10.615Z,98014.94
2023-03-17T12:13:43.083Z,98028.84
2023-03-17T12:16:17.525Z,98063.91
2023-03-17T12:18:56.801Z,98019.97
2023-03-17T12:21:32.881Z,98035.63
2023-03-17T12:24:05.094Z,98004.00
2023-03-17T12:26:38.219Z,98055.31
2023-03-17T12:29:12.996Z,98102.72
2023-03-17T12:31:47.099Z,98191.81
2023-03-17T12:34:21.500Z,98125.75
2023-03-17T12:36:51.458Z,98224.31
2023-03-17T12:39:22.988Z,98188.34
2023-03-17T12:42:17.644Z,98139.63
2023-03-17T12:45:01.979Z,98087.06
2023-03-17T12:47:45.159Z,98002.06
2023-03-17T12:50:42.065Z,97981.56
2023-03-17T12:53:30.746Z,97988.47
2023-03-17T12:56:03.149Z,97961.88
2023-03-17T12:58:36.565Z,98009.81
2023-03-17T13:01:16.000Z,98025.47
2023-03-17T13:03:59.649Z,98010.66
2023-03-17T13:06:31.353Z,98028.00
2023-03-17T13:09:34.427Z,98024.53
2023-03-17T13:12:03.856Z,98021.91
2023-03-17T13:14:43.298Z,98048.66
2023-03-17T13:17:34.213Z,98099.97
2023-03-17T13:20:20.258Z,97972.97
2023-03-17T13:23:04.529Z,97972.13
2023-03-17T13:25:35.995Z,97936.94
2023-03-17T13:28:27.060Z,97922.38
2023-03-17T13:31:11.380Z,97860.84
2023-03-17T13:33:46.745Z,97812.69
2023-03-17T13:36:29.468Z,97831.63
2023-03-17T13:39:24.640Z,97816.13
2023-03-17T13:42:18.162Z,97814.47
2023-03-17T13:45:08.681Z,97831.50
2023-03-17T13:47:39.975Z,97783.56
2023-03-17T13:50:13.617Z,97799.81
2023-03-17T13:52:47.179Z,97808.38
2023-03-17T13:55:36.044Z,97829.84
2023-03-17T13:58:33.202Z,97792.88
2023-03-17T14:01:06.751Z,97799.91
2023-03-17T14:03:47.426Z,97794.78
2023-03-17T14:06:16.358Z,97775.00
2023-03-17T14:08:48.783Z,97746.63
2023-03-17T14:11:29.897Z,97718.53
2023-03-17T14:14:31.163Z,97712.56
2023-03-17T14:17:05.143Z,97704.00
2023-03-17T14:19:33.432Z,97695.44
2023-03-17T14:22:06.343Z,97669.66
2023-03-17T14:24:35.073Z,97651.81
2023-03-17T14:27:07.910Z,97615.88
2023-03-17T14:29:38.078Z,97643.25
2023-03-17T14:32:08.748Z,97625.41
2023-03-17T14:34:43.942Z,97569.66
2023-03-17T14:37:12.986Z,97583.09
2023-03-17T14:39:46.284Z,97578.94
2023-03-17T14:42:14.294Z,97548.22
2023-03-17T14:44:44.696Z,97565.38
2023-03-17T14:47:21.020Z,97533.56
2023-03-17T14:49:49.437Z,97517.53
2023-03-17T14:52:21.152Z,97488.81
2023-03-17T14:54:52.910Z,97486.59
2023-03-17T14:57:24.927Z,97452.84
2023-03-17T15:00:02.605Z,97465.28
2023-03-17T15:02:35.394Z,97503.59
2023-03-17T15:05:13.876Z,97518.38
2023-03-17T15:07:42.752Z,97495.44
2023-03-17T15:10:17.062Z,97490.75
2023-03-17T15:12:46.702Z,97515.59
2023-03-17T15:15:23.869Z,97486.59
2023-03-17T15:17:53.290Z,97478.03
2023-03-17T15:20:21.721Z,97516.44
2023-03-17T15:22:56.916Z,97534.28
2023-03-17T15:25:29.008Z,97535.50
2023-03-17T15:27:57.107Z,97511.31
2023-03-17T15:30:37.461Z,97500.41
2023-03-17T15:33:20.560Z,97462.66
2023-03-17T15:35:48.519Z,97434.47
2023-03-17T15:38:16.440Z,97458.38
2023-03-17T15:40:44.393Z,97455.88
2023-03-17T15:43:15.065Z,97437.09
2023-03-17T15:45:45.187Z,97419.97
2023-03-17T15:48:20.427Z,97408.78
2023-03-17T15:50:49.627Z,97392.63
2023-03-17T15:53:17.918Z,97381.44
2023-03-17T15:55:46.182Z,97384.06
2023-03-17T15:58:14.145Z,97378.00
2023-03-17T16:00:42.514Z,97373.72
2023-03-17T16:03:19.662Z,97351.50
2023-03-17T16:05:47.561Z,97353.38
2023-03-17T16:08:17.820Z,97337.94
2023-03-17T16:10:46.472Z,97361.00
2023-03-17T16:13:15.529Z,97345.50
2023-03-17T16:15:47.249Z,97355.03
2023-03-17T16:18:19.243Z,97349.09
2023-03-17T16:20:48.885Z,97372.19
2023-03-17T16:23:20.001Z,97339.44
2023-03-17T16:25:48.036Z,97354.09
2023-03-17T16:28:17.691Z,97345.25
2023-03-17T16:30:46.434Z,97357.66
2023-03-17T16:33:19.669Z,97360.88
2023-03-17T16:35:49.546Z,97356.84
2023-03-17T16:38:20.903Z,97352.56
2023-03-17T16:40:51.531Z,97328.69
2023-03-17T16:43:25.578Z,97336.25
2023-03-17T16:45:55.762Z,97327.44
2023-03-17T16:48:25.949Z,97343.72
2023-03-17T16:50:54.430Z,97355.88
2023-03-17T16:53:22.914Z,97355.88
2023-03-17T16:55:52.182Z,97357.56
2023-03-17T16:58:22.177Z,97347.31
2023-03-17T17:00:52.184Z,97362.66
2023-03-17T17:03:20.281Z,97364.31
2023-03-17T17:05:49.631Z,97367.91
2023-03-17T17:08:17.411Z,97366.13
2023-03-17T17:10:45.395Z,97366.13
2023-03-17T17:13:13.500Z,97351.50
2023-03-17T17:15:44.152Z,97373.84
2023-03-17T17:18:15.891Z,97357.41
2023-03-17T17:20:45.253Z,97385.88
2023-03-17T17:23:17.302Z,97395.25
2023-03-17T17:25:45.396Z,97345.94
2023-03-17T17:28:17.631Z,97392.63
2023-03-17T17:30:47.915Z,97379.09
2023-03-17T17:33:16.964Z,97368.59
2023-03-17T17:35:45.864Z,97385.03
2023-03-17T17:38:21.055Z,97391.53
2023-03-17T17:40:49.833Z,97395.94
2023-03-17T17:43:19.132Z,97396.63
2023-03-17T17:45:49.385Z,97407.81
2023-03-17T17:48:18.270Z,97392.91
2023-03-17T17:50:46.592Z,97415.69
2023-03-17T17:53:14.856Z,97428.53
2023-03-17T17:55:45.173Z,97413.06
2023-03-17T17:58:14.370Z,97419.97
2023-03-17T18:00:42.403Z,97413.91
2023-03-17T18:03:10.369Z,97403.69
2023-03-17T18:05:39.579Z,97399.53
2023-03-17T18:08:08.053Z,97371.22
2023-03-17T18:10:36.146Z,97377.31
2023-03-17T18:13:05.658Z,97392.63
2023-03-17T18:15:33.870Z,97412.25
2023-03-17T18:18:02.134Z,97379.94
2023-03-17T18:20:30.439Z,97408.94
2023-03-17T18:22:58.747Z,97401.19
2023-03-17T18:25:27.178Z,97411.41
2023-03-17T18:27:56.325Z,97394.28
2023-03-17T18:30:27.361Z,97393.19
2023-03-17T18:32:58.294Z,97401.19
2023-03-17T18:35:28.540Z,97407.97
2023-03-17T18:37:57.930Z,97383.22
2023-03-17T18:40:26.486Z,97430.19
2023-03-17T18:42:54.974Z,97427.84
2023-03-17T18:45:22.901Z,97433.09
2023-03-17T18:47:52.079Z,97449.25
2023-03-17T18:50:21.910Z,97462.78
2023-03-17T18:52:50.077Z,97446.50
2023-03-17T18:55:18.227Z,97464.72
2023-03-17T18:57:46.770Z,97462.78
2023-03-17T19:00:17.421Z,97460.44
2023-03-17T19:02:46.227Z,97479.69
2023-03-17T19:05:16.193Z,97470.44
2023-03-17T19:07:44.057Z,97479.00
2023-03-17T19:10:13.954Z,97468.63
2023-03-17T19:12:42.413Z,97482.44
2023-03-17T19:15:12.507Z,97481.47
2023-03-17T19:17:41.339Z,97496.13
2023-03-17T19:20:11.127Z,97517.53
2023-03-17T19:22:40.371Z,97511.47
2023-03-17T19:25:10.003Z,97503.88
2023-03-17T19:27:41.321Z,97515.88
2023-03-17T19:30:10.393Z,97524.19
2023-03-17T19:32:40.570Z,97537.16
2023-03-17T19:35:08.937Z,97490.28
2023-03-17T19:37:38.112Z,97529.44
2023-03-17T19:40:09.798Z,97500.41
2023-03-17T19:42:37.985Z,97519.34
2023-03-17T19:45:06.712Z,97526.94
2023-03-17T19:47:34.710Z,97529.44
2023-03-17T19:50:02.508Z,97551.81
2023-03-17T19:52:30.433Z,97553.47
2023-03-17T19:54:58.680Z,97546.56
2023-03-17T19:57:28.103Z,97565.38
2023-03-17T19:59:56.189Z,97568.69
2023-03-17T20:02:23.961Z,97587.78
2023-03-17T20:04:51.928Z,97578.38
2023-03-17T20:07:19.807Z,97562.06
2023-03-17T20:09:48.586Z,97573.94
2023-03-17T20:12:16.793Z,97589.44
2023-03-17T20:14:46.021Z,97598.03
2023-03-17T20:17:15.376Z,97543.75
2023-03-17T20:19:43.202Z,97585.28
2023-03-17T20:22:11.612Z,97605.78
2023-03-17T20:24:39.384Z,97622.34
2023-03-17T20:27:08.011Z,97620.56
2023-03-17T20:29:35.799Z,97618.50
2023-03-17T20:32:05.496Z,97639.09
2023-03-17T20:34:34.604Z,97649.47
2023-03-17T20:37:02.816Z,97645.31
2023-03-17T20:39:30.749Z,97640.63
2023-03-17T20:41:58.561Z,97658.03
2023-03-17T20:44:26.319Z,97667.56
2023-03-17T20:46:54.880Z,97658.03
2023-03-17T20:49:24.047Z,97670.06
2023-03-17T20:51:51.944Z,97674.22
2023-03-17T20:54:20.037Z,97663.28
2023-03-17T20:56:52.314Z,97686.25
2023-03-17T20:59:20.446Z,97676.84
2023-03-17T21:01:48.303Z,97683.50
2023-03-17T21:04:17.676Z,97676.84
2023-03-17T21:06:46.904Z,97675.88
2023-03-17T21:09:14.736Z,97700.91
2023-03-17T21:11:42.682Z,97691.38
2023-03-17T21:14:13.320Z,97701.88
2023-03-17T21:16:42.653Z,97708.09
2023-03-17T21:19:13.569Z,97705.22
2023-03-17T21:21:41.354Z,97691.78
2023-03-17T21:24:27.629Z,97696.63
2023-03-17T21:26:55.785Z,97676.84
2023-03-17T21:29:23.597Z,97697.59
2023-03-17T21:31:51.574Z,97693.31
2023-03-17T21:34:19.936Z,97695.81
2023-03-17T21:36:47.870Z,97681.13
2023-03-17T21:39:17.708Z,97694.28
2023-03-17T21:41:46.220Z,97668.53
2023-03-17T21:44:15.946Z,97676.84
2023-03-17T21:46:43.936Z,97684.31
2023-03-17T21:49:13.208Z,97664.13
2023-03-17T21:51:41.057Z,97683.22
2023-03-17T21:54:08.852Z,97677.13
2023-03-17T21:56:38.675Z,97690.00
2023-03-17T21:59:11.014Z,97707.84
2023-03-17T22:01:39.039Z,97695.94
2023-03-17T22:04:07.518Z,97725.03
2023-03-17T22:06:35.476Z,97719.78
2023-03-17T22:09:04.397Z,97735.25
2023-03-17T22:11:32.282Z,97756.28
2023-03-17T22:14:01.879Z,97761.00
2023-03-17T22:16:30.041Z,97775.53
2023-03-17T22:18:58.090Z,97742.88
2023-03-17T22:21:26.137Z,97755.03
2023-03-17T22:23:53.900Z,97761.97
2023-03-17T22:26:22.998Z,97767.06
2023-03-17T22:28:51.506Z,97824.53
2023-03-17T22:31:22.882Z,97800.31
2023-03-17T22:33:52.665Z,97800.59
2023-03-17T22:36:20.737Z,97826.09
2023-03-17T22:38:48.722Z,97855.16
2023-03-17T22:41:18.325Z,97834.22
2023-03-17T22:43:47.060Z,97861.38
2023-03-17T22:46:16.395Z,97875.22
2023-03-17T22:48:46.769Z,97887.00
2023-03-17T22:51:17.508Z,97880.94
2023-03-17T22:53:46.095Z,97898.38
2023-03-17T22:56:15.691Z,97893.94
2023-03-17T22:58:43.936Z,97868.31
2023-03-17T23:01:13.422Z,97876.75
2023-03-17T23:03:42.087Z,97877.88
2023-03-17T23:06:13.106Z,97914.56
2023-03-17T23:08:42.810Z,97923.03
2023-03-17T23:11:13.515Z,97940.34
2023-03-17T23:13:42.196Z,97936.88
2023-03-17T23:16:10.468Z,97953.38
2023-03-17T23:18:38.387Z,97973.91
2023-03-17T23:21:07.492Z,97973.75
2023-03-17T23:23:38.114Z,97965.03
2023-03-17T23:26:06.349Z,97971.25
2023-03-17T23:28:34.284Z,97990.94
2023-03-17T23:31:02.779Z,97996.91
2023-03-17T23:33:30.978Z,97994.41
2023-03-17T23:35:58.827Z,97998.56
2023-03-17T23:38:26.602Z,98002.03
2023-03-17T23:40:57.325Z,98038.19
2023-03-17T23:43:25.986Z,98030.31
2023-03-17T23:45:54.307Z,98044.16
2023-03-17T23:48:22.870Z,98041.53
2023-03-17T23:50:52.699Z,98046.34
2023-03-17T23:53:21.129Z,98044.16
2023-03-17T23:55:49.294Z,98042.50
2023-03-17T23:58:18.931Z,98074.28
